Dalmeny, Canada
Current Conditions -  °F | °C
As of 10:00 PM on Thursday 18 Dec 2014 (Local Time) from CYXE Reporting Station
Light Snow Light Snow  
Wind Chill:   Ceiling: 500
Heat Index: 19°   Visibility: 10mi
Dew Point: 18°   Wind: 9mph
Humidity: 93%   Direction: 310°NW
Pressure: 29.91"   Gusts: NA
Location:  52.33°N, 106.78°W
Report Text: CYXE 190400Z 31008KT 10SM -SN OVC005 M07/M08 A2991 RMK ST8 SLP163
Loading
Personal Weather Stations






























Interactive Weather Map New forecast layout! Learn more

10-Day Weather Forecast

Advertisements
Track Severe Weather on mobile